sensor_id;sensor_type;location;lat;lon;timestamp;P1;durP1;ratioP1;P2;durP2;ratioP2
11121;SDS011;5615;49.304;10.576;2023-11-19T00:01:32;21.87;;;18.40;;
11121;SDS011;5615;49.304;10.576;2023-11-19T00:03:59;26.37;;;17.27;;
11121;SDS011;5615;49.304;10.576;2023-11-19T00:06:27;23.80;;;17.90;;
11121;SDS011;5615;49.304;10.576;2023-11-19T00:08:53;24.37;;;17.57;;
11121;SDS011;5615;49.304;10.576;2023-11-19T00:11:20;25.50;;;18.23;;
11121;SDS011;5615;49.304;10.576;2023-11-19T00:13:47;24.73;;;18.50;;
11121;SDS011;5615;49.304;10.576;2023-11-19T00:16:13;23.70;;;17.83;;
11121;SDS011;5615;49.304;10.576;2023-11-19T00:18:41;22.97;;;17.93;;
11121;SDS011;5615;49.304;10.576;2023-11-19T00:21:08;21.30;;;16.80;;
11121;SDS011;5615;49.304;10.576;2023-11-19T00:23:36;19.77;;;16.20;;
11121;SDS011;5615;49.304;10.576;2023-11-19T00:26:03;25.17;;;17.47;;
11121;SDS011;5615;49.304;10.576;2023-11-19T00:28:31;22.27;;;16.83;;
11121;SDS011;5615;49.304;10.576;2023-11-19T00:30:58;24.60;;;17.30;;
11121;SDS011;5615;49.304;10.576;2023-11-19T00:33:24;24.90;;;16.90;;
11121;SDS011;5615;49.304;10.576;2023-11-19T00:35:51;25.00;;;17.60;;
11121;SDS011;5615;49.304;10.576;2023-11-19T00:38:18;25.57;;;19.80;;
11121;SDS011;5615;49.304;10.576;2023-11-19T00:40:46;24.87;;;19.33;;
11121;SDS011;5615;49.304;10.576;2023-11-19T00:43:12;22.40;;;16.37;;
11121;SDS011;5615;49.304;10.576;2023-11-19T00:45:39;21.40;;;15.67;;
11121;SDS011;5615;49.304;10.576;2023-11-19T00:48:05;21.40;;;17.03;;
11121;SDS011;5615;49.304;10.576;2023-11-19T00:50:32;21.30;;;17.47;;
11121;SDS011;5615;49.304;10.576;2023-11-19T00:52:59;21.57;;;17.53;;
11121;SDS011;5615;49.304;10.576;2023-11-19T00:55:26;26.40;;;19.00;;
11121;SDS011;5615;49.304;10.576;2023-11-19T00:57:54;25.73;;;18.47;;
11121;SDS011;5615;49.304;10.576;2023-11-19T01:00:21;26.10;;;18.60;;
11121;SDS011;5615;49.304;10.576;2023-11-19T01:02:51;21.37;;;17.30;;
11121;SDS011;5615;49.304;10.576;2023-11-19T01:05:18;25.33;;;18.53;;
11121;SDS011;5615;49.304;10.576;2023-11-19T01:07:47;22.10;;;16.93;;
11121;SDS011;5615;49.304;10.576;2023-11-19T01:10:13;22.73;;;17.00;;
11121;SDS011;5615;49.304;10.576;2023-11-19T01:12:40;20.80;;;16.27;;
11121;SDS011;5615;49.304;10.576;2023-11-19T01:15:09;18.90;;;15.33;;
11121;SDS011;5615;49.304;10.576;2023-11-19T01:17:36;20.47;;;16.13;;
11121;SDS011;5615;49.304;10.576;2023-11-19T01:20:03;20.73;;;15.00;;
11121;SDS011;5615;49.304;10.576;2023-11-19T01:22:31;18.70;;;14.57;;
11121;SDS011;5615;49.304;10.576;2023-11-19T01:24:58;19.13;;;15.03;;
11121;SDS011;5615;49.304;10.576;2023-11-19T01:27:25;16.87;;;14.00;;
11121;SDS011;5615;49.304;10.576;2023-11-19T01:29:51;16.23;;;13.40;;
11121;SDS011;5615;49.304;10.576;2023-11-19T01:32:19;19.33;;;14.00;;
11121;SDS011;5615;49.304;10.576;2023-11-19T01:34:46;17.13;;;13.17;;
11121;SDS011;5615;49.304;10.576;2023-11-19T01:37:12;17.10;;;13.73;;
11121;SDS011;5615;49.304;10.576;2023-11-19T01:39:39;20.77;;;15.50;;
11121;SDS011;5615;49.304;10.576;2023-11-19T01:42:06;16.53;;;13.10;;
11121;SDS011;5615;49.304;10.576;2023-11-19T01:44:32;17.77;;;13.03;;
11121;SDS011;5615;49.304;10.576;2023-11-19T01:46:59;16.43;;;12.37;;
11121;SDS011;5615;49.304;10.576;2023-11-19T01:49:28;16.03;;;12.33;;
11121;SDS011;5615;49.304;10.576;2023-11-19T01:51:54;15.60;;;12.30;;
11121;SDS011;5615;49.304;10.576;2023-11-19T01:54:23;17.23;;;13.13;;
11121;SDS011;5615;49.304;10.576;2023-11-19T01:56:50;17.63;;;13.30;;
11121;SDS011;5615;49.304;10.576;2023-11-19T01:59:18;15.60;;;11.47;;
11121;SDS011;5615;49.304;10.576;2023-11-19T02:01:51;14.30;;;11.10;;
11121;SDS011;5615;49.304;10.576;2023-11-19T02:04:18;15.07;;;10.93;;
11121;SDS011;5615;49.304;10.576;2023-11-19T02:06:46;16.20;;;10.73;;
11121;SDS011;5615;49.304;10.576;2023-11-19T02:09:17;15.53;;;11.93;;
11121;SDS011;5615;49.304;10.576;2023-11-19T02:11:45;13.97;;;11.50;;
11121;SDS011;5615;49.304;10.576;2023-11-19T02:14:16;14.00;;;11.33;;
11121;SDS011;5615;49.304;10.576;2023-11-19T02:16:45;15.30;;;11.50;;
11121;SDS011;5615;49.304;10.576;2023-11-19T02:19:11;14.30;;;11.30;;
11121;SDS011;5615;49.304;10.576;2023-11-19T02:21:38;16.37;;;12.37;;
11121;SDS011;5615;49.304;10.576;2023-11-19T02:24:08;14.27;;;11.43;;
11121;SDS011;5615;49.304;10.576;2023-11-19T02:26:43;15.90;;;12.17;;
11121;SDS011;5615;49.304;10.576;2023-11-19T02:29:14;16.13;;;11.87;;
11121;SDS011;5615;49.304;10.576;2023-11-19T02:31:41;16.87;;;12.23;;
11121;SDS011;5615;49.304;10.576;2023-11-19T02:34:08;15.10;;;11.77;;
11121;SDS011;5615;49.304;10.576;2023-11-19T02:36:37;15.07;;;11.73;;
11121;SDS011;5615;49.304;10.576;2023-11-19T02:39:06;16.30;;;12.33;;
11121;SDS011;5615;49.304;10.576;2023-11-19T02:41:37;16.10;;;11.90;;
11121;SDS011;5615;49.304;10.576;2023-11-19T02:44:05;17.10;;;12.87;;
11121;SDS011;5615;49.304;10.576;2023-11-19T02:46:33;14.60;;;11.13;;
11121;SDS011;5615;49.304;10.576;2023-11-19T02:49:00;14.87;;;11.17;;
11121;SDS011;5615;49.304;10.576;2023-11-19T02:51:27;16.13;;;12.07;;
11121;SDS011;5615;49.304;10.576;2023-11-19T02:53:55;15.13;;;10.57;;
11121;SDS011;5615;49.304;10.576;2023-11-19T02:56:22;14.00;;;10.57;;
11121;SDS011;5615;49.304;10.576;2023-11-19T02:58:51;19.07;;;13.60;;
11121;SDS011;5615;49.304;10.576;2023-11-19T03:01:21;15.17;;;11.40;;
11121;SDS011;5615;49.304;10.576;2023-11-19T03:03:55;15.57;;;12.07;;
11121;SDS011;5615;49.304;10.576;2023-11-19T03:06:23;15.67;;;11.23;;
11121;SDS011;5615;49.304;10.576;2023-11-19T03:08:50;15.50;;;11.27;;
11121;SDS011;5615;49.304;10.576;2023-11-19T03:11:16;16.13;;;12.00;;
11121;SDS011;5615;49.304;10.576;2023-11-19T03:13:43;13.80;;;9.60;;
11121;SDS011;5615;49.304;10.576;2023-11-19T03:16:10;15.10;;;10.97;;
11121;SDS011;5615;49.304;10.576;2023-11-19T03:18:36;12.10;;;9.67;;
11121;SDS011;5615;49.304;10.576;2023-11-19T03:21:05;13.43;;;10.87;;
11121;SDS011;5615;49.304;10.576;2023-11-19T03:23:32;12.57;;;9.80;;
11121;SDS011;5615;49.304;10.576;2023-11-19T03:25:59;11.57;;;8.20;;
11121;SDS011;5615;49.304;10.576;2023-11-19T03:28:28;10.23;;;8.20;;
11121;SDS011;5615;49.304;10.576;2023-11-19T03:30:55;8.37;;;7.40;;
11121;SDS011;5615;49.304;10.576;2023-11-19T03:33:22;7.80;;;6.60;;
11121;SDS011;5615;49.304;10.576;2023-11-19T03:35:52;8.30;;;6.60;;
11121;SDS011;5615;49.304;10.576;2023-11-19T03:38:20;7.57;;;5.83;;
11121;SDS011;5615;49.304;10.576;2023-11-19T03:40:47;4.63;;;3.83;;
11121;SDS011;5615;49.304;10.576;2023-11-19T03:43:14;6.40;;;4.33;;
11121;SDS011;5615;49.304;10.576;2023-11-19T03:45:40;4.87;;;3.80;;
11121;SDS011;5615;49.304;10.576;2023-11-19T03:48:07;7.33;;;5.00;;
11121;SDS011;5615;49.304;10.576;2023-11-19T03:50:34;7.57;;;4.83;;
11121;SDS011;5615;49.304;10.576;2023-11-19T03:53:00;4.10;;;3.10;;
11121;SDS011;5615;49.304;10.576;2023-11-19T03:55:29;3.33;;;3.00;;
11121;SDS011;5615;49.304;10.576;2023-11-19T03:57:56;4.33;;;3.93;;
11121;SDS011;5615;49.304;10.576;2023-11-19T04:00:23;3.60;;;3.30;;
11121;SDS011;5615;49.304;10.576;2023-11-19T04:02:49;2.37;;;2.13;;
11121;SDS011;5615;49.304;10.576;2023-11-19T04:05:16;3.83;;;3.00;;
11121;SDS011;5615;49.304;10.576;2023-11-19T04:07:43;3.13;;;2.60;;
11121;SDS011;5615;49.304;10.576;2023-11-19T04:10:10;2.53;;;2.23;;
11121;SDS011;5615;49.304;10.576;2023-11-19T04:12:38;2.80;;;2.40;;
11121;SDS011;5615;49.304;10.576;2023-11-19T04:15:05;2.80;;;2.17;;
11121;SDS011;5615;49.304;10.576;2023-11-19T04:17:33;2.70;;;2.30;;
11121;SDS011;5615;49.304;10.576;2023-11-19T04:20:00;2.40;;;2.20;;
11121;SDS011;5615;49.304;10.576;2023-11-19T04:22:29;2.50;;;2.30;;
11121;SDS011;5615;49.304;10.576;2023-11-19T04:24:56;2.40;;;2.20;;
11121;SDS011;5615;49.304;10.576;2023-11-19T04:27:23;2.33;;;2.10;;
11121;SDS011;5615;49.304;10.576;2023-11-19T04:29:51;2.73;;;2.40;;
11121;SDS011;5615;49.304;10.576;2023-11-19T04:32:18;3.30;;;2.87;;
11121;SDS011;5615;49.304;10.576;2023-11-19T04:34:46;3.10;;;2.80;;
11121;SDS011;5615;49.304;10.576;2023-11-19T04:37:12;3.00;;;2.70;;
11121;SDS011;5615;49.304;10.576;2023-11-19T04:39:39;2.93;;;2.33;;
11121;SDS011;5615;49.304;10.576;2023-11-19T04:42:05;3.50;;;2.50;;
11121;SDS011;5615;49.304;10.576;2023-11-19T04:44:32;3.00;;;2.70;;
11121;SDS011;5615;49.304;10.576;2023-11-19T04:47:00;3.07;;;2.77;;
11121;SDS011;5615;49.304;10.576;2023-11-19T04:49:27;3.10;;;2.80;;
11121;SDS011;5615;49.304;10.576;2023-11-19T04:51:53;3.10;;;2.80;;
11121;SDS011;5615;49.304;10.576;2023-11-19T04:54:20;3.57;;;2.50;;
11121;SDS011;5615;49.304;10.576;2023-11-19T04:56:47;4.90;;;2.87;;
11121;SDS011;5615;49.304;10.576;2023-11-19T04:59:13;3.07;;;2.73;;
11121;SDS011;5615;49.304;10.576;2023-11-19T05:01:40;2.80;;;2.50;;
11121;SDS011;5615;49.304;10.576;2023-11-19T05:04:08;3.27;;;2.90;;
11121;SDS011;5615;49.304;10.576;2023-11-19T05:06:35;3.20;;;2.90;;
11121;SDS011;5615;49.304;10.576;2023-11-19T05:09:03;3.40;;;3.10;;
11121;SDS011;5615;49.304;10.576;2023-11-19T05:11:32;3.00;;;2.70;;
11121;SDS011;5615;49.304;10.576;2023-11-19T05:13:59;4.73;;;3.17;;
11121;SDS011;5615;49.304;10.576;2023-11-19T05:16:26;3.33;;;2.70;;
11121;SDS011;5615;49.304;10.576;2023-11-19T05:18:52;3.20;;;2.90;;
11121;SDS011;5615;49.304;10.576;2023-11-19T05:21:20;4.23;;;3.10;;
11121;SDS011;5615;49.304;10.576;2023-11-19T05:23:47;3.77;;;3.07;;
11121;SDS011;5615;49.304;10.576;2023-11-19T05:26:17;4.73;;;3.17;;
11121;SDS011;5615;49.304;10.576;2023-11-19T05:28:44;5.53;;;3.10;;
11121;SDS011;5615;49.304;10.576;2023-11-19T05:31:11;3.10;;;2.80;;
11121;SDS011;5615;49.304;10.576;2023-11-19T05:33:38;3.37;;;2.77;;
11121;SDS011;5615;49.304;10.576;2023-11-19T05:36:05;4.27;;;2.47;;
11121;SDS011;5615;49.304;10.576;2023-11-19T05:38:34;2.73;;;2.53;;
11121;SDS011;5615;49.304;10.576;2023-11-19T05:41:01;3.57;;;2.87;;
11121;SDS011;5615;49.304;10.576;2023-11-19T05:43:27;3.40;;;2.70;;
11121;SDS011;5615;49.304;10.576;2023-11-19T05:45:54;2.73;;;2.53;;
11121;SDS011;5615;49.304;10.576;2023-11-19T05:48:21;3.00;;;2.33;;
11121;SDS011;5615;49.304;10.576;2023-11-19T05:50:47;2.33;;;2.13;;
11121;SDS011;5615;49.304;10.576;2023-11-19T05:53:15;2.87;;;2.40;;
11121;SDS011;5615;49.304;10.576;2023-11-19T05:55:43;2.00;;;1.83;;
11121;SDS011;5615;49.304;10.576;2023-11-19T05:58:13;2.20;;;2.00;;
11121;SDS011;5615;49.304;10.576;2023-11-19T06:00:40;2.30;;;1.90;;
11121;SDS011;5615;49.304;10.576;2023-11-19T06:03:08;3.90;;;1.90;;
11121;SDS011;5615;49.304;10.576;2023-11-19T06:05:35;2.17;;;1.60;;
11121;SDS011;5615;49.304;10.576;2023-11-19T06:08:02;2.40;;;1.90;;
11121;SDS011;5615;49.304;10.576;2023-11-19T06:10:28;2.20;;;1.83;;
11121;SDS011;5615;49.304;10.576;2023-11-19T06:12:57;3.63;;;1.70;;
11121;SDS011;5615;49.304;10.576;2023-11-19T06:15:24;2.17;;;1.83;;
11121;SDS011;5615;49.304;10.576;2023-11-19T06:17:51;2.67;;;2.17;;
11121;SDS011;5615;49.304;10.576;2023-11-19T06:20:17;2.80;;;2.50;;
11121;SDS011;5615;49.304;10.576;2023-11-19T06:22:44;2.87;;;2.07;;
11121;SDS011;5615;49.304;10.576;2023-11-19T06:25:11;2.87;;;1.90;;
11121;SDS011;5615;49.304;10.576;2023-11-19T06:27:39;1.53;;;1.43;;
11121;SDS011;5615;49.304;10.576;2023-11-19T06:30:08;1.97;;;1.70;;
11121;SDS011;5615;49.304;10.576;2023-11-19T06:32:35;1.60;;;1.50;;
11121;SDS011;5615;49.304;10.576;2023-11-19T06:35:02;1.47;;;1.37;;
11121;SDS011;5615;49.304;10.576;2023-11-19T06:37:29;1.77;;;1.40;;
11121;SDS011;5615;49.304;10.576;2023-11-19T06:39:56;1.40;;;1.30;;
11121;SDS011;5615;49.304;10.576;2023-11-19T06:42:22;1.40;;;1.30;;
11121;SDS011;5615;49.304;10.576;2023-11-19T06:44:49;1.73;;;1.50;;
11121;SDS011;5615;49.304;10.576;2023-11-19T06:47:17;2.40;;;1.60;;
11121;SDS011;5615;49.304;10.576;2023-11-19T06:49:44;1.40;;;1.30;;
11121;SDS011;5615;49.304;10.576;2023-11-19T06:52:11;1.30;;;1.20;;
11121;SDS011;5615;49.304;10.576;2023-11-19T06:54:37;1.37;;;1.27;;
11121;SDS011;5615;49.304;10.576;2023-11-19T06:57:05;1.53;;;1.33;;
11121;SDS011;5615;49.304;10.576;2023-11-19T06:59:32;1.20;;;1.10;;
11121;SDS011;5615;49.304;10.576;2023-11-19T07:01:59;1.30;;;1.20;;
11121;SDS011;5615;49.304;10.576;2023-11-19T07:04:27;2.30;;;1.30;;
11121;SDS011;5615;49.304;10.576;2023-11-19T07:06:53;1.80;;;1.40;;
11121;SDS011;5615;49.304;10.576;2023-11-19T07:09:20;1.67;;;1.43;;
11121;SDS011;5615;49.304;10.576;2023-11-19T07:11:48;1.90;;;1.80;;
11121;SDS011;5615;49.304;10.576;2023-11-19T07:14:17;2.10;;;1.80;;
11121;SDS011;5615;49.304;10.576;2023-11-19T07:16:44;2.00;;;1.67;;
11121;SDS011;5615;49.304;10.576;2023-11-19T07:19:11;1.83;;;1.60;;
11121;SDS011;5615;49.304;10.576;2023-11-19T07:21:42;2.47;;;1.70;;
11121;SDS011;5615;49.304;10.576;2023-11-19T07:24:09;1.80;;;1.70;;
11121;SDS011;5615;49.304;10.576;2023-11-19T07:26:40;2.20;;;2.00;;
11121;SDS011;5615;49.304;10.576;2023-11-19T07:29:08;2.40;;;2.20;;
11121;SDS011;5615;49.304;10.576;2023-11-19T07:31:35;2.90;;;2.43;;
11121;SDS011;5615;49.304;10.576;2023-11-19T07:34:02;3.10;;;2.80;;
11121;SDS011;5615;49.304;10.576;2023-11-19T07:36:28;3.13;;;2.83;;
11121;SDS011;5615;49.304;10.576;2023-11-19T07:38:57;4.50;;;2.60;;
11121;SDS011;5615;49.304;10.576;2023-11-19T07:41:24;3.10;;;2.83;;
11121;SDS011;5615;49.304;10.576;2023-11-19T07:43:51;4.17;;;3.17;;
11121;SDS011;5615;49.304;10.576;2023-11-19T07:46:18;6.67;;;3.03;;
11121;SDS011;5615;49.304;10.576;2023-11-19T07:48:45;3.60;;;2.77;;
11121;SDS011;5615;49.304;10.576;2023-11-19T07:51:12;5.17;;;3.00;;
11121;SDS011;5615;49.304;10.576;2023-11-19T07:53:39;3.80;;;2.70;;
11121;SDS011;5615;49.304;10.576;2023-11-19T07:56:08;4.23;;;2.90;;
11121;SDS011;5615;49.304;10.576;2023-11-19T07:58:35;3.43;;;2.50;;
11121;SDS011;5615;49.304;10.576;2023-11-19T08:01:01;3.13;;;2.83;;
11121;SDS011;5615;49.304;10.576;2023-11-19T08:03:28;3.80;;;3.20;;
11121;SDS011;5615;49.304;10.576;2023-11-19T08:05:55;3.43;;;3.13;;
11121;SDS011;5615;49.304;10.576;2023-11-19T08:08:22;3.53;;;3.23;;
11121;SDS011;5615;49.304;10.576;2023-11-19T08:10:49;4.03;;;3.60;;
11121;SDS011;5615;49.304;10.576;2023-11-19T08:13:17;4.00;;;3.50;;
11121;SDS011;5615;49.304;10.576;2023-11-19T08:15:44;3.23;;;2.93;;
11121;SDS011;5615;49.304;10.576;2023-11-19T08:18:12;2.93;;;2.73;;
11121;SDS011;5615;49.304;10.576;2023-11-19T08:20:38;2.90;;;2.60;;
11121;SDS011;5615;49.304;10.576;2023-11-19T08:23:06;3.37;;;3.07;;
11121;SDS011;5615;49.304;10.576;2023-11-19T08:25:33;3.53;;;3.10;;
11121;SDS011;5615;49.304;10.576;2023-11-19T08:28:00;5.00;;;3.80;;
11121;SDS011;5615;49.304;10.576;2023-11-19T08:30:29;10.73;;;7.60;;
11121;SDS011;5615;49.304;10.576;2023-11-19T08:32:56;3.87;;;2.80;;
11121;SDS011;5615;49.304;10.576;2023-11-19T08:35:23;10.60;;;7.67;;
11121;SDS011;5615;49.304;10.576;2023-11-19T08:37:50;7.90;;;7.10;;
11121;SDS011;5615;49.304;10.576;2023-11-19T08:40:18;6.33;;;5.73;;
11121;SDS011;5615;49.304;10.576;2023-11-19T08:42:45;7.70;;;5.30;;
11121;SDS011;5615;49.304;10.576;2023-11-19T08:45:11;3.70;;;2.37;;
11121;SDS011;5615;49.304;10.576;2023-11-19T08:47:39;2.90;;;2.47;;
11121;SDS011;5615;49.304;10.576;2023-11-19T08:50:06;2.27;;;2.07;;
11121;SDS011;5615;49.304;10.576;2023-11-19T08:52:33;2.80;;;2.20;;
11121;SDS011;5615;49.304;10.576;2023-11-19T08:55:00;2.33;;;1.77;;
11121;SDS011;5615;49.304;10.576;2023-11-19T08:57:27;2.53;;;1.77;;
11121;SDS011;5615;49.304;10.576;2023-11-19T08:59:53;2.17;;;1.67;;
11121;SDS011;5615;49.304;10.576;2023-11-19T09:02:20;3.10;;;1.30;;
11121;SDS011;5615;49.304;10.576;2023-11-19T09:04:48;2.10;;;1.60;;
11121;SDS011;5615;49.304;10.576;2023-11-19T09:07:15;2.60;;;1.63;;
11121;SDS011;5615;49.304;10.576;2023-11-19T09:09:42;2.57;;;1.50;;
11121;SDS011;5615;49.304;10.576;2023-11-19T09:12:09;2.03;;;1.50;;
11121;SDS011;5615;49.304;10.576;2023-11-19T09:14:35;2.10;;;1.50;;
11121;SDS011;5615;49.304;10.576;2023-11-19T09:17:02;2.40;;;1.30;;
11121;SDS011;5615;49.304;10.576;2023-11-19T09:19:29;2.60;;;1.63;;
11121;SDS011;5615;49.304;10.576;2023-11-19T09:22:01;2.23;;;1.37;;
11121;SDS011;5615;49.304;10.576;2023-11-19T09:24:27;3.23;;;1.80;;
11121;SDS011;5615;49.304;10.576;2023-11-19T09:26:54;4.30;;;1.60;;
11121;SDS011;5615;49.304;10.576;2023-11-19T09:29:21;4.90;;;1.63;;
11121;SDS011;5615;49.304;10.576;2023-11-19T09:31:48;1.90;;;1.60;;
11121;SDS011;5615;49.304;10.576;2023-11-19T09:34:15;3.43;;;1.70;;
11121;SDS011;5615;49.304;10.576;2023-11-19T09:36:42;2.77;;;1.80;;
11121;SDS011;5615;49.304;10.576;2023-11-19T09:39:11;2.57;;;1.70;;
11121;SDS011;5615;49.304;10.576;2023-11-19T09:41:39;4.40;;;1.70;;
11121;SDS011;5615;49.304;10.576;2023-11-19T09:44:07;3.70;;;1.80;;
11121;SDS011;5615;49.304;10.576;2023-11-19T09:46:34;3.17;;;1.57;;
11121;SDS011;5615;49.304;10.576;2023-11-19T09:49:01;3.53;;;1.80;;
11121;SDS011;5615;49.304;10.576;2023-11-19T09:51:30;3.13;;;1.70;;
11121;SDS011;5615;49.304;10.576;2023-11-19T09:53:56;3.37;;;1.83;;
11121;SDS011;5615;49.304;10.576;2023-11-19T09:56:24;2.73;;;1.73;;
11121;SDS011;5615;49.304;10.576;2023-11-19T09:58:54;1.90;;;1.67;;
11121;SDS011;5615;49.304;10.576;2023-11-19T10:01:21;1.60;;;1.50;;
11121;SDS011;5615;49.304;10.576;2023-11-19T10:03:47;2.00;;;1.80;;
11121;SDS011;5615;49.304;10.576;2023-11-19T10:06:16;2.20;;;1.70;;
11121;SDS011;5615;49.304;10.576;2023-11-19T10:08:44;2.23;;;1.73;;
11121;SDS011;5615;49.304;10.576;2023-11-19T10:11:10;2.07;;;1.60;;
11121;SDS011;5615;49.304;10.576;2023-11-19T10:13:39;2.87;;;1.90;;
11121;SDS011;5615;49.304;10.576;2023-11-19T10:16:08;4.23;;;1.57;;
11121;SDS011;5615;49.304;10.576;2023-11-19T10:18:36;2.27;;;1.47;;
11121;SDS011;5615;49.304;10.576;2023-11-19T10:21:04;2.33;;;1.27;;
11121;SDS011;5615;49.304;10.576;2023-11-19T10:23:41;2.70;;;1.40;;
11121;SDS011;5615;49.304;10.576;2023-11-19T10:26:14;2.30;;;1.60;;
11121;SDS011;5615;49.304;10.576;2023-11-19T10:28:42;2.70;;;1.60;;
11121;SDS011;5615;49.304;10.576;2023-11-19T10:31:11;2.73;;;1.40;;
11121;SDS011;5615;49.304;10.576;2023-11-19T10:33:38;2.33;;;1.47;;
11121;SDS011;5615;49.304;10.576;2023-11-19T10:36:05;3.13;;;1.60;;
11121;SDS011;5615;49.304;10.576;2023-11-19T10:38:32;3.00;;;1.57;;
11121;SDS011;5615;49.304;10.576;2023-11-19T10:41:00;1.70;;;1.23;;
11121;SDS011;5615;49.304;10.576;2023-11-19T10:43:26;4.73;;;2.00;;
11121;SDS011;5615;49.304;10.576;2023-11-19T10:45:54;2.13;;;1.50;;
11121;SDS011;5615;49.304;10.576;2023-11-19T10:48:35;3.40;;;1.30;;
11121;SDS011;5615;49.304;10.576;2023-11-19T10:51:02;1.43;;;1.13;;
11121;SDS011;5615;49.304;10.576;2023-11-19T10:53:32;1.77;;;1.60;;
11121;SDS011;5615;49.304;10.576;2023-11-19T10:56:01;3.23;;;1.53;;
11121;SDS011;5615;49.304;10.576;2023-11-19T10:58:30;3.47;;;1.30;;
11121;SDS011;5615;49.304;10.576;2023-11-19T11:01:01;2.53;;;1.40;;
11121;SDS011;5615;49.304;10.576;2023-11-19T11:03:29;11.00;;;6.47;;
11121;SDS011;5615;49.304;10.576;2023-11-19T11:06:04;2.00;;;1.73;;
11121;SDS011;5615;49.304;10.576;2023-11-19T11:08:32;2.63;;;1.50;;
11121;SDS011;5615;49.304;10.576;2023-11-19T11:11:04;4.00;;;1.80;;
11121;SDS011;5615;49.304;10.576;2023-11-19T11:13:31;3.87;;;1.60;;
11121;SDS011;5615;49.304;10.576;2023-11-19T11:16:01;5.00;;;2.07;;
11121;SDS011;5615;49.304;10.576;2023-11-19T11:18:32;2.27;;;1.60;;
11121;SDS011;5615;49.304;10.576;2023-11-19T11:21:00;3.23;;;1.67;;
11121;SDS011;5615;49.304;10.576;2023-11-19T11:23:36;3.10;;;1.53;;
11121;SDS011;5615;49.304;10.576;2023-11-19T11:26:50;3.43;;;1.70;;
11121;SDS011;5615;49.304;10.576;2023-11-19T11:29:30;5.63;;;2.03;;
11121;SDS011;5615;49.304;10.576;2023-11-19T11:32:12;2.87;;;2.20;;
11121;SDS011;5615;49.304;10.576;2023-11-19T11:34:52;4.00;;;1.50;;
11121;SDS011;5615;49.304;10.576;2023-11-19T11:37:30;4.15;;;1.52;;
11121;SDS011;5615;49.304;10.576;2023-11-19T11:40:00;4.37;;;1.60;;
11121;SDS011;5615;49.304;10.576;2023-11-19T11:42:31;4.20;;;1.37;;
11121;SDS011;5615;49.304;10.576;2023-11-19T11:45:01;1.70;;;1.30;;
11121;SDS011;5615;49.304;10.576;2023-11-19T11:50:50;2.37;;;1.57;;
11121;SDS011;5615;49.304;10.576;2023-11-19T11:53:19;2.77;;;1.87;;
11121;SDS011;5615;49.304;10.576;2023-11-19T11:55:56;1.90;;;1.30;;
11121;SDS011;5615;49.304;10.576;2023-11-19T11:58:28;2.30;;;2.03;;
11121;SDS011;5615;49.304;10.576;2023-11-19T12:00:59;8.47;;;5.90;;
11121;SDS011;5615;49.304;10.576;2023-11-19T12:03:29;4.77;;;3.47;;
11121;SDS011;5615;49.304;10.576;2023-11-19T12:05:57;2.30;;;2.10;;
11121;SDS011;5615;49.304;10.576;2023-11-19T12:08:25;5.17;;;3.37;;
11121;SDS011;5615;49.304;10.576;2023-11-19T12:10:53;4.45;;;4.03;;
11121;SDS011;5615;49.304;10.576;2023-11-19T12:13:23;1.77;;;1.27;;
11121;SDS011;5615;49.304;10.576;2023-11-19T12:16:08;3.28;;;1.23;;
11121;SDS011;5615;49.304;10.576;2023-11-19T12:18:38;2.83;;;2.08;;
11121;SDS011;5615;49.304;10.576;2023-11-19T12:21:06;4.40;;;1.23;;
11121;SDS011;5615;49.304;10.576;2023-11-19T12:23:34;6.72;;;2.35;;
11121;SDS011;5615;49.304;10.576;2023-11-19T12:26:01;2.97;;;2.17;;
11121;SDS011;5615;49.304;10.576;2023-11-19T12:28:28;3.28;;;1.58;;
11121;SDS011;5615;49.304;10.576;2023-11-19T12:31:06;2.03;;;1.10;;
11121;SDS011;5615;49.304;10.576;2023-11-19T12:33:35;2.67;;;1.80;;
11121;SDS011;5615;49.304;10.576;2023-11-19T12:36:04;2.78;;;1.38;;
11121;SDS011;5615;49.304;10.576;2023-11-19T12:38:32;4.03;;;2.42;;
11121;SDS011;5615;49.304;10.576;2023-11-19T12:41:04;3.22;;;2.10;;
11121;SDS011;5615;49.304;10.576;2023-11-19T12:43:31;6.00;;;3.27;;
11121;SDS011;5615;49.304;10.576;2023-11-19T12:45:59;6.23;;;2.57;;
11121;SDS011;5615;49.304;10.576;2023-11-19T12:48:25;4.57;;;2.03;;
11121;SDS011;5615;49.304;10.576;2023-11-19T12:50:52;1.98;;;1.40;;
11121;SDS011;5615;49.304;10.576;2023-11-19T12:53:21;3.33;;;1.73;;
11121;SDS011;5615;49.304;10.576;2023-11-19T12:55:49;5.68;;;4.43;;
11121;SDS011;5615;49.304;10.576;2023-11-19T12:58:29;4.78;;;2.20;;
11121;SDS011;5615;49.304;10.576;2023-11-19T13:00:59;2.20;;;1.70;;
11121;SDS011;5615;49.304;10.576;2023-11-19T13:03:30;3.60;;;2.95;;
11121;SDS011;5615;49.304;10.576;2023-11-19T13:06:03;2.38;;;1.60;;
11121;SDS011;5615;49.304;10.576;2023-11-19T13:08:37;3.97;;;1.60;;
11121;SDS011;5615;49.304;10.576;2023-11-19T13:11:04;1.90;;;1.50;;
11121;SDS011;5615;49.304;10.576;2023-11-19T13:13:32;2.50;;;1.30;;
11121;SDS011;5615;49.304;10.576;2023-11-19T13:16:04;3.88;;;1.38;;
11121;SDS011;5615;49.304;10.576;2023-11-19T13:18:31;2.10;;;1.38;;
11121;SDS011;5615;49.304;10.576;2023-11-19T13:20:58;2.63;;;1.30;;
11121;SDS011;5615;49.304;10.576;2023-11-19T13:23:24;1.35;;;1.20;;
11121;SDS011;5615;49.304;10.576;2023-11-19T13:25:52;4.57;;;1.65;;
11121;SDS011;5615;49.304;10.576;2023-11-19T13:28:19;3.13;;;1.20;;
11121;SDS011;5615;49.304;10.576;2023-11-19T13:30:46;2.05;;;1.55;;
11121;SDS011;5615;49.304;10.576;2023-11-19T13:33:13;2.85;;;1.52;;
11121;SDS011;5615;49.304;10.576;2023-11-19T13:35:39;2.28;;;1.58;;
11121;SDS011;5615;49.304;10.576;2023-11-19T13:38:06;1.92;;;1.30;;
11121;SDS011;5615;49.304;10.576;2023-11-19T13:40:34;3.28;;;1.20;;
11121;SDS011;5615;49.304;10.576;2023-11-19T13:43:02;1.63;;;1.27;;
11121;SDS011;5615;49.304;10.576;2023-11-19T13:45:29;2.92;;;1.30;;
11121;SDS011;5615;49.304;10.576;2023-11-19T13:47:55;1.70;;;1.13;;
11121;SDS011;5615;49.304;10.576;2023-11-19T13:50:22;2.10;;;1.50;;
11121;SDS011;5615;49.304;10.576;2023-11-19T13:52:48;3.20;;;1.43;;
11121;SDS011;5615;49.304;10.576;2023-11-19T13:55:15;2.70;;;1.67;;
11121;SDS011;5615;49.304;10.576;2023-11-19T13:57:43;2.80;;;1.40;;
11121;SDS011;5615;49.304;10.576;2023-11-19T14:00:11;2.53;;;1.23;;
11121;SDS011;5615;49.304;10.576;2023-11-19T14:02:41;3.80;;;1.60;;
11121;SDS011;5615;49.304;10.576;2023-11-19T14:05:08;2.07;;;1.30;;
11121;SDS011;5615;49.304;10.576;2023-11-19T14:07:35;2.17;;;1.53;;
11121;SDS011;5615;49.304;10.576;2023-11-19T14:10:02;3.10;;;1.60;;
11121;SDS011;5615;49.304;10.576;2023-11-19T14:12:30;2.13;;;1.30;;
11121;SDS011;5615;49.304;10.576;2023-11-19T14:14:57;2.55;;;1.30;;
11121;SDS011;5615;49.304;10.576;2023-11-19T14:17:26;2.65;;;1.50;;
11121;SDS011;5615;49.304;10.576;2023-11-19T14:19:53;2.97;;;1.30;;
11121;SDS011;5615;49.304;10.576;2023-11-19T14:22:19;2.13;;;1.40;;
11121;SDS011;5615;49.304;10.576;2023-11-19T14:24:46;1.83;;;1.50;;
11121;SDS011;5615;49.304;10.576;2023-11-19T14:27:12;3.72;;;1.60;;
11121;SDS011;5615;49.304;10.576;2023-11-19T14:29:39;1.67;;;1.23;;
11121;SDS011;5615;49.304;10.576;2023-11-19T14:32:06;3.83;;;1.27;;
11121;SDS011;5615;49.304;10.576;2023-11-19T14:34:34;2.85;;;1.58;;
11121;SDS011;5615;49.304;10.576;2023-11-19T14:37:00;2.58;;;1.30;;
11121;SDS011;5615;49.304;10.576;2023-11-19T14:39:27;2.10;;;1.20;;
11121;SDS011;5615;49.304;10.576;2023-11-19T14:41:56;1.98;;;1.30;;
11121;SDS011;5615;49.304;10.576;2023-11-19T14:44:25;2.30;;;1.38;;
11121;SDS011;5615;49.304;10.576;2023-11-19T14:46:52;2.22;;;1.30;;
11121;SDS011;5615;49.304;10.576;2023-11-19T14:49:19;2.95;;;1.63;;